CET,Max TemperatureF,Mean TemperatureF,Min TemperatureF,Max Dew PointF,MeanDew PointF,Min DewpointF,Max Humidity, Mean Humidity, Min Humidity, Max Sea Level PressureIn, Mean Sea Level PressureIn, Min Sea Level PressureIn, Max VisibilityMiles, Mean VisibilityMiles, Min VisibilityMiles, Max Wind SpeedMPH, Mean Wind SpeedMPH, Max Gust SpeedMPH,PrecipitationIn, CloudCover, Events, WindDirDegrees
2011-12-1,62,52,41,48,43,37,93,78,52,30.39,30.35,30.33,5,3,2,6,3,,0.00,,,350
2011-12-2,55,50,46,54,48,41,94,87,76,30.33,30.26,30.21,4,2,1,6,3,,0.00,4,Fog-Rain,7
2011-12-3,62,53,44,55,52,45,100,87,68,30.21,30.17,30.12,6,5,1,9,3,,0.00,4,Fog-Rain,207
2011-12-4,64,58,51,57,53,48,94,84,59,30.12,30.08,30.06,6,5,2,15,5,,0.00,5,Rain-Thunderstorm,244
2011-12-5,62,60,57,57,55,52,88,78,72,30.06,29.94,29.86,6,6,4,23,9,31,0.00,5,Rain,230
2011-12-6,62,58,53,54,47,45,82,66,55,30.01,29.92,29.86,6,6,5,18,10,31,0.00,4,Rain,258
2011-12-7,60,53,46,48,44,41,87,70,51,30.12,30.06,29.98,6,6,6,13,4,,0.00,3,,282
2011-12-8,64,54,44,52,46,41,94,78,49,30.27,30.15,30.06,6,5,4,6,3,,0.00,1,,300
2011-12-9,62,52,42,52,47,39,87,77,63,30.30,30.26,30.21,6,6,6,9,4,,0.00,3,,228
2011-12-10,62,60,57,55,52,50,88,75,72,30.21,30.14,30.09,6,6,5,10,6,,0.00,4,Rain,209
2011-12-11,64,62,59,55,54,52,88,78,68,30.12,30.11,30.09,6,6,4,10,6,,0.00,6,Rain,194
2011-12-12,64,60,57,55,54,52,88,78,68,30.12,30.05,29.98,6,6,4,12,6,,0.00,4,Rain-Thunderstorm,208
2011-12-13,60,53,46,52,45,39,88,67,48,30.15,30.06,29.98,6,6,5,16,7,21,0.00,3,Rain,265
2011-12-14,62,54,46,57,51,41,88,81,72,30.21,30.15,30.12,6,6,3,13,4,,0.00,5,Rain,218
2011-12-15,62,58,55,57,53,46,94,80,67,30.12,30.08,30.04,6,6,1,22,7,,0.00,3,Rain-Thunderstorm,235
2011-12-16,60,53,46,54,49,39,88,73,59,30.09,29.92,29.56,6,6,5,23,8,38,0.00,3,Rain,230
2011-12-17,60,50,39,54,39,30,77,59,45,29.80,29.62,29.50,6,6,5,31,17,45,0.00,4,Rain-Thunderstorm,274
2011-12-18,51,44,37,41,36,28,87,74,57,29.80,29.78,29.74,6,6,5,12,5,23,0.00,4,Rain-Thunderstorm,33
2011-12-19,50,44,39,41,36,32,87,74,54,29.89,29.81,29.77,6,6,3,12,6,,0.00,3,Rain-Thunderstorm,18
2011-12-20,48,42,35,32,28,23,81,60,37,29.98,29.93,29.89,6,6,6,8,4,,0.00,2,,352
2011-12-21,48,44,39,32,28,19,66,53,39,29.92,29.87,29.80,6,6,6,22,10,32,0.00,3,,35
2011-12-22,51,45,39,34,30,25,70,55,35,30.04,29.97,29.89,6,6,6,21,9,32,0.00,2,,354
2011-12-23,55,44,33,32,29,27,75,55,35,30.15,30.10,30.04,,,,22,6,28,0.00,,,3
2011-12-24,57,46,35,46,39,28,93,71,48,30.15,30.03,29.92,6,6,3,17,5,,0.00,5,Rain,253
2011-12-25,53,50,46,46,37,28,93,64,46,30.36,30.13,29.89,6,6,3,30,16,44,0.00,4,Rain,50
2011-12-26,53,48,42,32,31,28,66,52,41,30.48,30.41,30.33,6,6,6,21,13,28,0.00,1,,52
2011-12-27,57,49,41,37,34,28,76,60,41,30.54,30.49,30.45,5,5,5,12,7,,0.00,,,17
2011-12-28,55,45,35,37,35,32,87,69,41,30.48,30.38,30.30,5,5,4,6,4,,0.00,,,326
2011-12-29,55,44,33,39,36,28,87,74,54,30.30,30.14,30.04,6,4,2,5,3,,0.00,1,,6
2011-12-30,48,45,42,45,40,36,93,82,71,30.01,29.89,29.80,6,3,1,7,3,,0.00,4,Rain,14
2011-12-31,53,47,37,39,29,21,87,53,28,30.12,29.98,29.80,6,5,2,12,6,,0.00,4,Rain,2